Tiempo atmosférico en la estación meteorológica de Miguelañez, Segovia (870 m.)



Fecha
DESCASC
Temp. máxima en grados centígrados (hora)
DESCASC
Temp. mínima en grados centígrados (hora)
DESCASC
Temp. media en grados centígrados
DESCASC
Racha de viento máxima en m/sg (hora)
DESCASC
Velocidad máxima media en intervalos de 10 minutos(hora)
DESCASC
Precipitaciones diarias en mm
DESCASC
Precipitaciones de 00:00 a 06:00 en mm
DESCASC
Precipitaciones de 06:00 a 12:00 en mm
DESCASC
Precipitaciones de 12:00 a 18:00 en mm
DESCASC
Precipitaciones de 18:00 a 24:00 en mm
DESCASC
18-04-2019 13.2 (00:10) 8.1 (08:00) 10.7 10.28 (03:20) 7.78 (03:20) 6.8 0.4 0.8 2.4 3.2
17-04-2019 19.9 (18:10) 9.9 (01:10) 14.9 20.56 (08:00) 12.78 (12:20) 1 0 0 0 1
16-04-2019 19.3 (17:00) 3.7 (00:00) 11.5 10 (19:00) 7.78 (18:50) 0 0 0 0 0
15-04-2019 21.6 (15:50) 8.2 (00:00) 14.9 18.33 (15:40) 12.78 (17:30) 0.2 0 0 0 0.2
14-04-2019 19.4 (19:00) 10.6 (00:00) 15 7.78 (00:10) 5.28 (01:00) 0 0 0 0 0
13-04-2019 19 (18:30) 0.9 (00:00) 9.9 6.94 (23:59) 4.72 (06:10) 0 0 0 0 0
12-04-2019 14.6 (17:50) -0.5 (-00:0) 7.1 7.22 (14:30) 4.44 (13:00) 0 0 0 0 0
11-04-2019 12.3 (19:00) 0.5 (00:00) 6.4 7.78 (18:20) 4.44 (18:30) 0 0 0 0 0
10-04-2019 10.4 (17:50) 3.5 (00:00) 6.9 11.11 (09:50) 8.33 (09:50) 2.4 0 1.6 0.6 0.2
09-04-2019 10.9 (18:00) 3.9 (00:00) 7.4 14.44 (14:00) 10.83 (14:30) 1.6 0 0.2 1.4 0
08-04-2019 12.8 (16:30) 5.5 (00:00) 9.2 14.44 (20:30) 9.72 (20:30) 4.2 1 2.6 0 0.6
07-04-2019 9.9 (15:10) 1.8 (00:00) 5.8 10.56 (03:10) 7.78 (02:00) 4.8 1.4 0 0.4 3
06-04-2019 7.3 (15:10) 2 (00:00) 4.7 22.5 (16:00) 13.33 (15:50) 0.4 0 0 0.2 0.2
05-04-2019 5.5 (16:40) 0.6 (00:00) 3.1 13.61 (17:00) 8.33 (17:00) 5.4 0 1.6 3.4 0.4
04-04-2019 11.9 (17:20) -1.8 (-00:0) 5 11.11 (20:00) 7.22 (19:40) 0 0 0 0 0
03-04-2019 -- (--) -- (--) -- -- (--) -- (--) -- 0 0 -- 0
02-04-2019 17.4 (18:20) 7.6 (00:00) 12.5 12.5 (18:40) 8.06 (19:30) 0 0 0 0 0
01-04-2019 16.8 (18:20) 3.7 (00:00) 10.2 6.67 (23:50) 4.72 (23:50) 0 0 0 0 0
31-03-2019 17.6 (14:20) 2.8 (00:00) 10.2 12.22 (15:40) 9.17 (20:20) 1 0 0 1 0
30-03-2019 18.4 (15:20) 3.8 (00:00) 11.1 13.06 (01:40) 9.72 (01:30) 0 0 0 0 0
29-03-2019 18 (15:30) 4.1 (00:00) 11 13.33 (04:20) 10 (04:30) 0 0 0 0 0
28-03-2019 18.7 (17:10) -2 (-00:0) 8.4 6.67 (20:40) 5 (20:50) 0 0 0 0 0
27-03-2019 18.8 (16:30) -3.1 (-00:0) 7.8 10.56 (16:20) 7.22 (18:50) 0 0 0 0 0
26-03-2019 20.5 (16:00) -2.8 (-00:0) 8.9 11.39 (18:30) 8.61 (18:40) 0 0 0 0 0
25-03-2019 16.3 (16:30) 2.5 (00:00) 9.4 10.83 (15:00) 7.5 (17:10) 0 0 0 0 0
24-03-2019 20 (16:20) 5.3 (00:00) 12.7 8.61 (16:40) 6.39 (01:10) 0 0 0 0 0
23-03-2019 19.6 (15:30) 1.9 (00:00) 10.8 11.11 (00:30) 8.33 (00:30) 0 0 0 0 0
22-03-2019 17.3 (16:30) 0.4 (00:00) 8.8 9.72 (03:30) 8.06 (03:40) 0 0 0 0 0
21-03-2019 15 (16:10) -3.7 (-00:0) 5.6 7.5 (23:00) 4.44 (23:00) 0 0 0 0 0

Gráficas

Temp. máximas Temp. mínimas Temp. medias Precipitaciones Rachas de viento máximas Velocidades máximas media en intervalos de 10 minutos

Datos horarios

Fecha y hora oficial Temperatura (ºC) Velocidad del viento (km/h) Dirección del viento Racha (km/h) Dirección de racha Precipitación (mm) Presión (hPa) Tendencia (hPa) Humedad (%)
2019-04-19 23:00:00 11.7 22 Nordeste 36 Nordeste 0 -- -- 64
2019-04-19 22:00:00 11.8 21 Nordeste 32 Nordeste 0 -- -- 70
2019-04-19 21:00:00 11.6 17 Nordeste 27 Nordeste 0 -- -- 78
2019-04-19 20:00:00 10.6 7 Noroeste 13 Oeste 0 -- -- 90
2019-04-19 19:00:00 9.9 6 Norte 22 Nordeste 0 -- -- 90
2019-04-19 18:00:00 10.4 11 Nordeste 28 Nordeste 0 -- -- 86
2019-04-19 17:00:00 11.3 22 Nordeste 29 Nordeste 0 -- -- 76
2019-04-19 16:00:00 12.3 15 Nordeste 23 Nordeste 0 -- -- 71
2019-04-19 15:00:00 12.3 16 Nordeste 24 Este 0 -- -- 70
2019-04-19 14:00:00 11.4 17 Este 24 Este 0.2 -- -- 71
2019-04-19 13:00:00 11.3 17 Este 23 Este 0 -- -- 71
2019-04-19 12:00:00 11.2 14 Este 22 Nordeste 0 -- -- 76
2019-04-19 11:00:00 9.6 10 Este 15 Este 0 -- -- 88
2019-04-19 10:00:00 7.6 7 Este 13 Sudeste 0 -- -- 93
2019-04-19 09:00:00 6.1 3 Este 8 Este 0 -- -- 94
2019-04-19 08:00:00 5.9 3 Este 8 Nordeste 0 -- -- 93
2019-04-19 07:00:00 6.3 3 Este 9 Nordeste 0 -- -- 94
2019-04-19 06:00:00 7.3 3 Este 6 Este 0 -- -- 95
2019-04-19 05:00:00 7.6 3 Este 9 Sur 0 -- -- 95
2019-04-19 04:00:00 8.1 8 Sudoeste 12 Sur 1.4 -- -- 95
2019-04-19 03:00:00 8.2 8 Sur 32 Sudeste 1.2 -- -- 95
2019-04-19 02:00:00 7.9 13 Sur 19 Sur 0 -- -- 92
2019-04-19 01:00:00 8.5 4 Sur 8 Sur 1 -- -- 94
2019-04-19 00:00:00 8.6 2 Oeste 5 Oeste 2.4 -- -- 93
2019-04-18 23:00:00 8.8 4 Oeste 6 Oeste 0.6 -- -- 91
2019-04-18 22:00:00 9.1 3 Oeste 6 Noroeste 0.2 -- -- 88
2019-04-18 21:00:00 9.5 6 Noroeste 15 Noroeste 0 -- -- 85
2019-04-18 20:00:00 10.4 12 Noroeste 16 Norte 0 -- -- 79
2019-04-18 19:00:00 11.1 9 Norte 15 Norte 0 -- -- 74
2019-04-18 18:00:00 11.2 10 Norte 17 Norte 0 -- -- 73
2019-04-18 17:00:00 11.1 10 Norte 17 Norte 0 -- -- 71
2019-04-18 16:00:00 10.8 8 Nordeste 14 Nordeste 0 -- -- 78
2019-04-18 15:00:00 10.7 8 Nordeste 18 Nordeste 0 -- -- 76
2019-04-18 14:00:00 10.1 13 Nordeste 25 Nordeste 0.2 -- -- 78
2019-04-18 13:00:00 9 14 Este 23 Nordeste 2.2 -- -- 93
2019-04-18 12:00:00 8.8 8 Noroeste 12 Noroeste 0.6 -- -- 89
2019-04-18 11:00:00 8.8 3 Norte 11 Nordeste 0.2 -- -- 90
2019-04-18 10:00:00 8.7 6 Norte 11 Norte 0 -- -- 90
2019-04-18 09:00:00 8.4 3 Norte 6 Norte 0 -- -- 92
2019-04-18 08:00:00 8.1 6 Norte 9 Norte 0 -- -- 92
2019-04-18 07:00:00 8.2 0 Calma 9 Oeste 0 -- -- 90
2019-04-18 06:00:00 8.4 3 Sur 23 Sudeste 0 -- -- 88
2019-04-18 05:00:00 8.6 19 Sudeste 27 Sudeste 0.2 -- -- 86
2019-04-18 04:00:00 8.9 20 Sudeste 37 Sur 0.2 -- -- 86
2019-04-18 03:00:00 9.7 24 Sur 34 Sur 0 -- -- 82
2019-04-18 02:00:00 10.4 18 Oeste 27 Oeste 0 -- -- 80
2019-04-18 01:00:00 11.4 11 Sur 27 Sudeste 0 -- -- 75
2019-04-18 00:00:00 12.8 18 Sudeste 32 Sudeste 0 -- -- 70
2019-04-17 23:00:00 13.2 28 Este 37 Sudeste 0 -- -- 70
2019-04-17 22:00:00 12 19 Sudeste 36 Sudeste 0 -- -- 80
2019-04-17 21:00:00 13.7 25 Sur 40 Sur 0 -- -- 73
2019-04-17 20:00:00 13.4 26 Sur 46 Sudoeste 1 -- -- 78
2019-04-17 19:00:00 19 15 Sur 34 Sur 0 -- -- 46
2019-04-17 18:00:00 19.8 23 Sudeste 38 Sur 0 -- -- 42
2019-04-17 17:00:00 18.1 12 Sudeste 29 Sudeste 0 -- -- 47
2019-04-17 16:00:00 17.8 24 Sudeste 41 Sur 0 -- -- 46
2019-04-17 15:00:00 17.7 30 Sur 47 Sur 0 -- -- 42
2019-04-17 14:00:00 18 25 Sur 53 Sudeste 0 -- -- 43
2019-04-17 13:00:00 18.5 45 Sudeste 61 Sudeste 0 -- -- 38
2019-04-17 12:00:00 16.3 29 Sur 51 Sur 0 -- -- 47
2019-04-17 11:00:00 13.9 26 Sur 59 Sur 0 -- -- 55
2019-04-17 10:00:00 12.8 13 Sudeste 42 Sudeste 0 -- -- 60
2019-04-17 09:00:00 14 36 Sudeste 50 Sudeste 0 -- -- 55
2019-04-17 08:00:00 12.9 41 Sur 74 Sudeste 0 -- -- 59
2019-04-17 07:00:00 12.7 22 Sur 36 Sur 0 -- -- 62
2019-04-17 06:00:00 12.3 21 Sur 39 Sur 0 -- -- 65
2019-04-17 05:00:00 13.2 28 Sur 44 Sudeste 0 -- -- 59
2019-04-17 04:00:00 13 20 Sudeste 37 Sudeste 0 -- -- 58
2019-04-17 03:00:00 12.5 11 Este 28 Este 0 -- -- 59
2019-04-17 02:00:00 11.4 13 Sudeste 19 Sudeste 0 -- -- 50
2019-04-17 01:00:00 11.2 9 Sudeste 14 Sudeste 0 -- -- 53
2019-04-17 00:00:00 11.3 13 Sudeste 19 Sudeste 0 -- -- 54
2019-04-16 23:00:00 12.5 13 Sudeste 30 Sur 0 -- -- 50
2019-04-16 22:00:00 15 21 Sur 28 Sur 0 -- -- 41
2019-04-16 21:00:00 15.6 18 Sur 29 Sur 0 -- -- 41
2019-04-16 20:00:00 17.5 23 Sur 36 Sur 0 -- -- 35
2019-04-16 19:00:00 18.7 26 Sur 36 Sudeste 0 -- -- 35
2019-04-16 18:00:00 18.9 22 Sur 35 Sudeste 0 -- -- 36
2019-04-16 17:00:00 19.3 18 Sudeste 36 Sudeste 0 -- -- 36
2019-04-16 16:00:00 18.6 21 Sur 35 Sur 0 -- -- 33
2019-04-16 15:00:00 18 10 Sudeste 29 Sudeste 0 -- -- 43
2019-04-16 14:00:00 16.2 5 Sur 18 Sudeste 0 -- -- 47
2019-04-16 13:00:00 14.7 5 Sudeste 18 Este 0 -- -- 51
2019-04-16 12:00:00 13.4 6 Este 16 Nordeste 0 -- -- 57
2019-04-16 11:00:00 11.3 5 Sudeste 15 Este 0 -- -- 74
2019-04-16 10:00:00 9.7 4 Este 11 Sudeste 0 -- -- 83
2019-04-16 09:00:00 6.1 8 Sudeste 13 Este 0 -- -- 93
2019-04-16 08:00:00 5.5 8 Sudoeste 12 Sudeste 0 -- -- 96
2019-04-16 07:00:00 4.7 4 Sudeste 14 Sur 0 -- -- 92
2019-04-16 06:00:00 5.1 9 Sur 17 Sur 0 -- -- 94
2019-04-16 05:00:00 6.4 12 Sudoeste 15 Sudoeste 0 -- -- 91
2019-04-16 04:00:00 6.6 10 Sudoeste 17 Sudoeste 0 -- -- 89
2019-04-16 03:00:00 7 12 Sudoeste 16 Sudoeste 0 -- -- 89
2019-04-16 02:00:00 7.6 12 Sudoeste 22 Sudoeste 0 -- -- 88
2019-04-16 01:00:00 8.4 14 Sudoeste 18 Sudoeste 0 -- -- 85
2019-04-16 00:00:00 8.2 8 Sur 12 Sudeste 0 -- -- 89
2019-04-15 23:00:00 9.2 10 Sur 17 Sur 0 -- -- 88
2019-04-15 22:00:00 9.4 8 Sur 17 Sudoeste 0 -- -- 86
2019-04-15 21:00:00 9.8 14 Sudoeste 41 Oeste 0.2 -- -- 82
2019-04-15 20:00:00 11.5 31 Oeste 57 Oeste 0 -- -- 64
2019-04-15 19:00:00 13.5 43 Oeste 57 Oeste 0 -- -- 55
2019-04-15 18:00:00 16.9 37 Oeste 61 Sudoeste 0 -- -- 55
2019-04-15 17:00:00 19.7 42 Oeste 58 Sudoeste 0 -- -- 43
2019-04-15 16:00:00 21.5 36 Sur 66 Sur 0 -- -- 33
2019-04-15 15:00:00 21 39 Sur 57 Sur 0 -- -- 44
2019-04-15 14:00:00 20.2 37 Sur 60 Sur 0 -- -- 50
2019-04-15 13:00:00 19.4 33 Sur 44 Sur 0 -- -- 59
2019-04-15 12:00:00 17.1 27 Sudeste 41 Sur 0 -- -- 66
2019-04-15 11:00:00 16 24 Sudeste 33 Sudeste 0 -- -- 69
2019-04-15 10:00:00 13.5 21 Sudeste 29 Sudeste 0 -- -- 80
2019-04-15 09:00:00 14.3 18 Sur 24 Sur 0 -- -- 75
2019-04-15 08:00:00 12.7 16 Sur 23 Sur 0 -- -- 77
2019-04-15 07:00:00 12.9 11 Sudoeste 18 Sudoeste 0 -- -- 79
2019-04-15 06:00:00 12.3 15 Sudoeste 18 Sudoeste 0 -- -- 77
2019-04-15 05:00:00 9.7 4 Oeste 15 Sudeste 0 -- -- 86
2019-04-15 04:00:00 11.1 13 Sudeste 21 Sudeste 0 -- -- 81
2019-04-15 03:00:00 11.3 12 Sudeste 17 Sudeste 0 -- -- 81
2019-04-15 02:00:00 11.3 12 Sudeste 19 Este 0 -- -- 83
2019-04-15 01:00:00 11.9 11 Sudeste 17 Sudeste 0 -- -- 81
2019-04-15 00:00:00 13 14 Sudeste 22 Sudeste 0 -- -- 76
2019-04-14 23:00:00 13.4 13 Sudeste 14 Sudeste 0 -- -- 73
2019-04-14 22:00:00 13.5 10 Sudeste 10 Sudeste 0 -- -- 73
2019-04-14 21:00:00 15.3 8 Sudeste 10 Sudeste 0 -- -- 68
2019-04-14 20:00:00 19.1 0 Calma 9 Oeste 0 -- -- 54
2019-04-14 19:00:00 19.4 3 Noroeste 19 Noroeste 0 -- -- 52
2019-04-14 18:00:00 18.7 3 Noroeste 19 Oeste 0 -- -- 55
2019-04-14 17:00:00 18.5 6 Noroeste 24 Oeste 0 -- -- 56
2019-04-14 16:00:00 17.5 11 Noroeste 26 Oeste 0 -- -- 58
2019-04-14 15:00:00 16.6 12 Oeste 20 Oeste 0 -- -- 60
2019-04-14 14:00:00 16.2 7 Noroeste 14 Noroeste 0 -- -- 63
2019-04-14 13:00:00 14.4 8 Oeste 19 Oeste 0 -- -- 70
2019-04-14 12:00:00 13.9 10 Oeste 23 Oeste 0 -- -- 73
2019-04-14 11:00:00 12.4 13 Oeste 21 Oeste 0 -- -- 81
2019-04-14 10:00:00 11.8 14 Oeste 20 Sudoeste 0 -- -- 87
2019-04-14 09:00:00 11.1 12 Sudoeste 17 Sur 0 -- -- 88
2019-04-14 08:00:00 10.7 12 Sur 18 Sur 0 -- -- 86
2019-04-14 07:00:00 10.8 12 Sudoeste 17 Sudoeste 0 -- -- 85
2019-04-14 06:00:00 10.8 12 Sudoeste 19 Sudoeste 0 -- -- 81
2019-04-14 05:00:00 10.7 13 Sudoeste 22 Sur 0 -- -- 79
2019-04-14 04:00:00 10.9 15 Sur 23 Sudoeste 0 -- -- 75
2019-04-14 03:00:00 10.6 17 Sudoeste 23 Sudoeste 0 -- -- 71
2019-04-14 02:00:00 11.2 14 Sudoeste 22 Sudoeste 0 -- -- 64
2019-04-14 01:00:00 11.7 19 Sudoeste 28 Sudoeste 0 -- -- 58
2019-04-14 00:00:00 13.6 13 Sudoeste 25 Sudoeste 0 -- -- 39
2019-04-13 23:00:00 14 11 Sudoeste 14 Sudoeste 0 -- -- 37
2019-04-13 22:00:00 12.5 5 Sudoeste 7 Sudoeste 0 -- -- 46
2019-04-13 21:00:00 15.2 6 Sudoeste 18 Oeste 0 -- -- 34
2019-04-13 20:00:00 17.5 11 Oeste 18 Oeste 0 -- -- 33
2019-04-13 19:00:00 18.7 5 Noroeste 18 Noroeste 0 -- -- 26
2019-04-13 18:00:00 18.9 5 Sur 22 Oeste 0 -- -- 26
2019-04-13 17:00:00 18.4 9 Sudoeste 22 Sudoeste 0 -- -- 27
2019-04-13 16:00:00 17.8 7 Oeste 16 Sudoeste 0 -- -- 29
2019-04-13 15:00:00 17.4 4 Este 18 Este 0 -- -- 28
2019-04-13 14:00:00 15.9 4 Noroeste 13 Oeste 0 -- -- 34
2019-04-13 13:00:00 15.2 8 Sudeste 16 Este 0 -- -- 39
2019-04-13 12:00:00 14.3 5 Este 10 Este 0 -- -- 38
2019-04-13 11:00:00 11.8 3 Oeste 18 Sudeste 0 -- -- 52
2019-04-13 10:00:00 7.6 15 Sudeste 21 Sudeste 0 -- -- 67
2019-04-13 09:00:00 3.8 15 Sudeste 21 Sudeste 0 -- -- 76
2019-04-13 08:00:00 1.4 7 Sudeste 17 Sudeste 0 -- -- 84
2019-04-13 07:00:00 1.7 15 Sudeste 19 Sudeste 0 -- -- 81
2019-04-13 06:00:00 1.1 16 Sudeste 19 Sudeste 0 -- -- 84
2019-04-13 05:00:00 2.5 11 Sudeste 18 Sudeste 0 -- -- 80
2019-04-13 04:00:00 3.3 15 Sudeste 20 Sudeste 0 -- -- 78
2019-04-13 03:00:00 2.9 14 Sudeste 18 Sudeste 0 -- -- 81
2019-04-13 02:00:00 4.2 7 Sudeste 15 Sudeste 0 -- -- 77
2019-04-13 01:00:00 4.5 12 Sudeste 14 Sudeste 0 -- -- 75
2019-04-13 00:00:00 6.5 3 Sudeste 5 Sudeste 0 -- -- 67
2019-04-12 23:00:00 8.3 0 Calma 4 Nordeste 0 -- -- 59
2019-04-12 22:00:00 9.3 2 Nordeste 6 Norte 0 -- -- 57
2019-04-12 21:00:00 11.6 5 Norte 10 Norte 0 -- -- 45
2019-04-12 20:00:00 14.2 5 Norte 15 Norte 0 -- -- 41
2019-04-12 19:00:00 14.5 6 Norte 17 Noroeste 0 -- -- 39
2019-04-12 18:00:00 14.3 12 Noroeste 21 Noroeste 0 -- -- 36
2019-04-12 17:00:00 14.2 9 Norte 23 Norte 0 -- -- 40
2019-04-12 16:00:00 13.7 8 Norte 22 Norte 0 -- -- 45
2019-04-12 15:00:00 12.7 8 Noroeste 26 Noroeste 0 -- -- 44
2019-04-12 14:00:00 11.2 15 Norte 23 Norte 0 -- -- 51
2019-04-12 13:00:00 9.7 16 Noroeste 25 Noroeste 0 -- -- 59
2019-04-12 12:00:00 8.1 7 Oeste 12 Oeste 0 -- -- 72
2019-04-12 11:00:00 5.9 5 Norte 8 Norte 0 -- -- 87
2019-04-12 10:00:00 3.3 0 Calma 5 Noroeste 0 -- -- 95
2019-04-12 09:00:00 0.9 6 Sudeste 11 Sudeste 0 -- -- 96
2019-04-12 08:00:00 -0.3 2 Sudeste 5 Oeste 0 -- -- 94
2019-04-12 07:00:00 1.2 5 Oeste 10 Sudoeste 0 -- -- 94
2019-04-12 06:00:00 1.7 0 Calma 2 Oeste 0 -- -- 93
2019-04-12 05:00:00 1.8 2 Sudeste 8 Norte 0 -- -- 92
2019-04-12 04:00:00 2.7 9 Nordeste 15 Nordeste 0 -- -- 91
2019-04-12 03:00:00 2.3 3 Este 14 Nordeste 0 -- -- 88
2019-04-12 02:00:00 3.2 4 Nordeste 10 Este 0 -- -- 87
2019-04-12 01:00:00 3.6 7 Este 12 Nordeste 0 -- -- 84
2019-04-12 00:00:00 5 9 Nordeste 18 Nordeste 0 -- -- 80
2019-04-11 23:00:00 5.9 5 Nordeste 17 Norte 0 -- -- 71
2019-04-11 22:00:00 6.9 2 Sudeste 5 Norte 0 -- -- 70
2019-04-11 21:00:00 9.3 3 Norte 13 Norte 0 -- -- 60
2019-04-11 20:00:00 10.5 6 Noroeste 23 Noroeste 0 -- -- 55
2019-04-11 19:00:00 12.3 14 Noroeste 28 Noroeste 0 -- -- 44
2019-04-11 18:00:00 12.2 12 Noroeste 22 Noroeste 0 -- -- 47
2019-04-11 17:00:00 11.3 14 Norte 23 Noroeste 0 -- -- 52
2019-04-11 16:00:00 10.9 15 Noroeste 23 Noroeste 0 -- -- 49
2019-04-11 15:00:00 9.8 8 Noroeste 19 Oeste 0 -- -- 56
2019-04-11 14:00:00 8.7 8 Sudoeste 17 Sudoeste 0 -- -- 65
2019-04-11 13:00:00 8.7 3 Noroeste 14 Nordeste 0 -- -- 67
2019-04-11 12:00:00 8 6 Nordeste 15 Nordeste 0 -- -- 72
2019-04-11 11:00:00 6.3 3 Nordeste 8 Norte 0 -- -- 84
2019-04-11 10:00:00 4 3 Oeste 8 Sudoeste 0 -- -- 92
2019-04-11 09:00:00 2.6 5 Oeste 8 Oeste 0 -- -- 94
2019-04-11 08:00:00 1.1 0 Calma 4 Sudeste 0 -- -- 94
2019-04-11 07:00:00 2.3 0 Calma 2 Oeste 0 -- -- 92
2019-04-11 06:00:00 2.3 0 Calma 3 Este 0 -- -- 93
2019-04-11 05:00:00 1.9 3 Este 7 Este 0 -- -- 91
2019-04-11 04:00:00 3.4 2 Noroeste 9 Norte 0 -- -- 89
2019-04-11 03:00:00 4.2 8 Nordeste 11 Norte 0 -- -- 88
2019-04-11 02:00:00 5.1 5 Norte 14 Nordeste 0 -- -- 87
2019-04-11 01:00:00 6 4 Norte 13 Nordeste 0 -- -- 85
2019-04-11 00:00:00 6 4 Oeste 12 Sudoeste 0 -- -- 91
2019-04-10 23:00:00 6.1 9 Oeste 17 Norte 0 -- -- 91
2019-04-10 22:00:00 5.8 8 Oeste 17 Oeste 0 -- -- 89
2019-04-10 21:00:00 7.2 6 Oeste 10 Oeste 0 -- -- 83
2019-04-10 20:00:00 9 10 Noroeste 18 Norte 0 -- -- 73
2019-04-10 19:00:00 9.1 18 Noroeste 25 Noroeste 0.2 -- -- 73
2019-04-10 18:00:00 10.1 10 Norte 25 Norte 0 -- -- 69
2019-04-10 17:00:00 7.7 8 Norte 40 Noroeste 0.2 -- -- 81
2019-04-10 16:00:00 8.9 19 Noroeste 31 Noroeste 0 -- -- 69
2019-04-10 15:00:00 9.1 15 Noroeste 30 Noroeste 0.2 -- -- 71
2019-04-10 14:00:00 7.7 19 Oeste 28 Oeste 0 -- -- 80
2019-04-10 13:00:00 6.4 9 Oeste 27 Oeste 0.2 -- -- 90
2019-04-10 12:00:00 5.2 12 Noroeste 30 Oeste 1 -- -- 89
2019-04-10 11:00:00 5.1 21 Oeste 29 Oeste 0.2 -- -- 92
2019-04-10 10:00:00 3.9 25 Oeste 40 Oeste 0.4 -- -- 91
2019-04-10 09:00:00 4.6 27 Oeste 34 Oeste 0 -- -- 92
2019-04-10 08:00:00 4.1 15 Oeste 20 Oeste 0 -- -- 93
2019-04-10 07:00:00 3.5 14 Sudoeste 24 Sudoeste 0 -- -- 93
2019-04-10 06:00:00 4.5 18 Sudoeste 35 Oeste 0 -- -- 90
2019-04-10 05:00:00 4.6 23 Oeste 36 Oeste 0 -- -- 90
2019-04-10 04:00:00 4.7 23 Oeste 35 Oeste 0 -- -- 89
2019-04-10 03:00:00 5 23 Oeste 38 Oeste 0 -- -- 88
2019-04-10 02:00:00 5.2 30 Oeste 40 Oeste 0 -- -- 89
2019-04-10 01:00:00 5.7 16 Oeste 31 Sudoeste 0 -- -- 89
2019-04-10 00:00:00 5.6 24 Oeste 37 Oeste 0 -- -- 86
2019-04-09 23:00:00 6.5 27 Oeste 47 Oeste 0 -- -- 79
2019-04-09 22:00:00 7.1 20 Oeste 29 Sudoeste 0 -- -- 74
2019-04-09 21:00:00 7.8 26 Oeste 41 Oeste 0 -- -- 65
2019-04-09 20:00:00 9 19 Oeste 44 Oeste 0 -- -- 66
2019-04-09 19:00:00 9.8 32 Oeste 48 Oeste 0 -- -- 59
2019-04-09 18:00:00 10.9 32 Oeste 40 Oeste 0 -- -- 52
2019-04-09 17:00:00 9.4 26 Oeste 46 Oeste 0 -- -- 63
2019-04-09 16:00:00 8.5 31 Oeste 51 Oeste 0 -- -- 73
2019-04-09 15:00:00 6.1 32 Oeste 50 Oeste 0 -- -- 83
2019-04-09 14:00:00 6.1 36 Oeste 52 Oeste 0 -- -- 84
2019-04-09 13:00:00 5 25 Sudoeste 40 Sudoeste 1.4 -- -- 90
2019-04-09 12:00:00 7.9 24 Sudoeste 38 Sudoeste 0 -- -- 76
2019-04-09 11:00:00 7.2 23 Sudoeste 36 Sudoeste 0 -- -- 78
2019-04-09 10:00:00 6.5 19 Sudoeste 28 Sudoeste 0 -- -- 80
2019-04-09 09:00:00 4.9 12 Sur 22 Sudoeste 0.2 -- -- 83
2019-04-09 08:00:00 4.8 11 Sur 24 Sudoeste 0 -- -- 81
2019-04-09 07:00:00 4.6 18 Sur 27 Sudoeste 0 -- -- 82
2019-04-09 06:00:00 3.9 17 Sur 25 Sur 0 -- -- 88
2019-04-09 05:00:00 4.1 15 Sur 24 Sur 0 -- -- 88
2019-04-09 04:00:00 4.1 13 Sudoeste 23 Sudoeste 0 -- -- 87
2019-04-09 03:00:00 4 15 Sur 22 Sur 0 -- -- 88
2019-04-09 02:00:00 4.2 16 Sudoeste 22 Sudoeste 0 -- -- 88
2019-04-09 01:00:00 4.7 17 Sudoeste 23 Sur 0 -- -- 88
2019-04-09 00:00:00 5.5 15 Sur 25 Sudoeste 0 -- -- 85
2019-04-08 23:00:00 6.1 12 Sur 23 Sudoeste 0 -- -- 84
2019-04-08 22:00:00 6.7 14 Sudoeste 31 Sudoeste 0 -- -- 82
2019-04-08 21:00:00 7.5 26 Sudoeste 52 Oeste 0.6 -- -- 83
2019-04-08 20:00:00 10.7 23 Oeste 41 Oeste 0 -- -- 53
2019-04-08 19:00:00 12.5 26 Oeste 40 Oeste 0 -- -- 43
2019-04-08 18:00:00 12.6 24 Oeste 37 Oeste 0 -- -- 51
2019-04-08 17:00:00 12.3 32 Oeste 41 Oeste 0 -- -- 52
2019-04-08 16:00:00 12.2 20 Noroeste 38 Oeste 0 -- -- 60
2019-04-08 15:00:00 11.5 22 Oeste 31 Oeste 0 -- -- 63
2019-04-08 14:00:00 9.7 24 Oeste 36 Oeste 0 -- -- 71
2019-04-08 13:00:00 9.3 20 Oeste 32 Oeste 0 -- -- 77
2019-04-08 12:00:00 8.7 21 Oeste 33 Oeste 0 -- -- 78
2019-04-08 11:00:00 8 13 Sudoeste 30 Oeste 0 -- -- 90
2019-04-08 10:00:00 7.4 19 Oeste 27 Oeste 0 -- -- 93
2019-04-08 09:00:00 7.2 14 Sudoeste 21 Sudoeste 0.2 -- -- 95
2019-04-08 08:00:00 6.9 14 Sur 27 Sudoeste 0.8 -- -- 93
2019-04-08 07:00:00 7 13 Sur 27 Sur 1.6 -- -- 92
2019-04-08 06:00:00 7.1 16 Sur 34 Sur 0.4 -- -- 90
2019-04-08 05:00:00 6.8 12 Sur 18 Sur 0.6 -- -- 89
2019-04-08 04:00:00 6.7 14 Sur 23 Sur 0 -- -- 88
2019-04-08 03:00:00 7 14 Sur 23 Sur 0 -- -- 88
2019-04-08 02:00:00 7.5 15 Sur 24 Sur 0 -- -- 87
2019-04-08 01:00:00 7.6 17 Sur 24 Sur 0 -- -- 87
2019-04-08 00:00:00 6.9 13 Sur 22 Sur 0 -- -- 93
2019-04-07 23:00:00 5.5 14 Sudeste 24 Sudeste 0.2 -- -- 93
2019-04-07 22:00:00 5.5 15 Sudeste 24 Sudeste 0.4 -- -- 92
2019-04-07 21:00:00 5.6 15 Sudeste 21 Sudeste 0.4 -- -- 91
2019-04-07 20:00:00 5.8 10 Sudeste 15 Sudoeste 1 -- -- 87
2019-04-07 19:00:00 6 10 Sudoeste 24 Sudoeste 1 -- -- 87
2019-04-07 18:00:00 6.8 19 Sudoeste 38 Sudoeste 0.4 -- -- 77
2019-04-07 17:00:00 8.9 16 Sudoeste 30 Sudoeste 0 -- -- 61
2019-04-07 16:00:00 9.9 18 Sudoeste 33 Sudoeste 0 -- -- 53
2019-04-07 15:00:00 9.5 14 Oeste 31 Sudoeste 0 -- -- 54
2019-04-07 14:00:00 8.3 17 Oeste 30 Sudoeste 0 -- -- 55
2019-04-07 13:00:00 7.3 15 Oeste 31 Oeste 0 -- -- 66
2019-04-07 12:00:00 6.1 16 Oeste 27 Sudoeste 0 -- -- 69
2019-04-07 11:00:00 4.5 19 Oeste 30 Sudoeste 0 -- -- 82
2019-04-07 10:00:00 3.5 17 Oeste 24 Oeste 0 -- -- 89
2019-04-07 09:00:00 2.4 14 Sudoeste 28 Sudoeste 0 -- -- 93
2019-04-07 08:00:00 2.3 14 Oeste 25 Sudoeste 0 -- -- 93
2019-04-07 07:00:00 2.3 18 Oeste 29 Oeste 0 -- -- 93
2019-04-07 06:00:00 2.3 18 Sudoeste 35 Oeste 0 -- -- 93
2019-04-07 05:00:00 2.8 26 Oeste 36 Oeste 0.2 -- -- 94
2019-04-07 04:00:00 2.1 20 Sudoeste 38 Sudoeste 0.8 -- -- 95
2019-04-07 03:00:00 3 25 Oeste 37 Sudoeste 0.4 -- -- 90
2019-04-07 02:00:00 3.5 28 Oeste 37 Oeste 0 -- -- 85
2019-04-07 01:00:00 3.1 20 Sudoeste 31 Sudoeste 0 -- -- 87
2019-04-07 00:00:00 3 27 Sudoeste 38 Sudoeste 0 -- -- 87
2019-04-06 23:00:00 3.3 22 Sudoeste 38 Sudoeste 0 -- -- 85
2019-04-06 22:00:00 4.1 32 Oeste 45 Oeste 0 -- -- 80
2019-04-06 21:00:00 4.8 20 Oeste 68 Oeste 0 -- -- 80
2019-04-06 20:00:00 6.4 42 Oeste 68 Oeste 0.2 -- -- 66
2019-04-06 19:00:00 6.7 33 Oeste 58 Sudoeste 0 -- -- 69
2019-04-06 18:00:00 6.5 39 Oeste 61 Sudoeste 0 -- -- 72
2019-04-06 17:00:00 6 37 Oeste 61 Oeste 0.2 -- -- 80
2019-04-06 16:00:00 7.2 48 Oeste 81 Oeste 0 -- -- 67
2019-04-06 15:00:00 7.2 39 Sudoeste 68 Sudoeste 0 -- -- 69
2019-04-06 14:00:00 6.4 37 Oeste 59 Sudoeste 0 -- -- 69
2019-04-06 13:00:00 5.2 41 Sudoeste 57 Sudoeste 0 -- -- 74
2019-04-06 12:00:00 5.6 36 Sudoeste 57 Sudoeste 0 -- -- 71
2019-04-06 11:00:00 5 37 Sudoeste 52 Sudoeste 0 -- -- 77
2019-04-06 10:00:00 3.9 28 Sudoeste 36 Sudoeste 0 -- -- 82
2019-04-06 09:00:00 3.1 13 Sudoeste 26 Sur 0 -- -- 84
2019-04-06 08:00:00 2.7 14 Sur 23 Sur 0 -- -- 85
2019-04-06 07:00:00 2.1 11 Sur 21 Sur 0 -- -- 88
2019-04-06 06:00:00 2.2 14 Sudoeste 27 Sur 0 -- -- 89
2019-04-06 05:00:00 2.3 14 Sudoeste 31 Sudoeste 0 -- -- 90
2019-04-06 04:00:00 2.4 21 Sudoeste 35 Sudoeste 0 -- -- 89
2019-04-06 03:00:00 2.6 16 Sudoeste 30 Sudoeste 0 -- -- 90
2019-04-06 02:00:00 2.4 15 Sudoeste 30 Sudoeste 0 -- -- 91
2019-04-06 01:00:00 2.2 20 Sudoeste 27 Sudoeste 0 -- -- 91
2019-04-06 00:00:00 2.4 12 Sudoeste 20 Sudoeste 0 -- -- 91
2019-04-05 23:00:00 2.5 12 Sudoeste 23 Sudoeste 0 -- -- 91
2019-04-05 22:00:00 2.6 17 Sudoeste 44 Oeste 0 -- -- 91
2019-04-05 21:00:00 3.1 17 Sudeste 21 Sur 0 -- -- 90
2019-04-05 20:00:00 4.3 10 Sudeste 20 Sur 0.2 -- -- 86
2019-04-05 19:00:00 3.9 10 Sudeste 14 Sudeste 0.2 -- -- 93
2019-04-05 18:00:00 1.4 4 Nordeste 27 Oeste 1.2 -- -- 95
2019-04-05 17:00:00 1.8 30 Sudoeste 49 Oeste 0 -- -- 84
2019-04-05 16:00:00 4.7 10 Sudeste 18 Sur 0 -- -- 81
2019-04-05 15:00:00 3.1 8 Sudeste 14 Sudeste 0.4 -- -- 94
2019-04-05 14:00:00 1.3 6 Sudoeste 26 Oeste 0.4 -- -- 96
2019-04-05 13:00:00 1.4 23 Oeste 37 Oeste 1.4 -- -- 94
2019-04-05 12:00:00 3.6 15 Oeste 22 Oeste 0 -- -- 91
2019-04-05 11:00:00 2.3 6 Sudoeste 18 Oeste 1.2 -- -- 94
2019-04-05 10:00:00 2.3 9 Oeste 39 Oeste 0.4 -- -- 92
2019-04-05 09:00:00 4.6 20 Sudoeste 38 Oeste 0 -- -- 81
2019-04-05 08:00:00 4.8 17 Sur 28 Sur 0 -- -- 76
2019-04-05 07:00:00 4.5 15 Sudeste 21 Sudeste 0 -- -- 83
2019-04-05 06:00:00 4.8 12 Sur 17 Sudeste 0 -- -- 82
2019-04-05 05:00:00 4.6 4 Sudoeste 27 Sur 0 -- -- 82
2019-04-05 04:00:00 4.8 20 Sur 29 Sudeste 0 -- -- 78
2019-04-05 03:00:00 4.7 20 Sudeste 29 Sudeste 0 -- -- 79
2019-04-05 02:00:00 4.8 17 Sudeste 23 Sudeste 0 -- -- 79
2019-04-05 01:00:00 4.8 6 Sudoeste 17 Sudoeste 0 -- -- 74
2019-04-05 00:00:00 4.9 6 Oeste 19 Oeste 0 -- -- 74
2019-04-04 23:00:00 5.8 13 Noroeste 32 Oeste 0 -- -- 66
2019-04-04 22:00:00 7.2 15 Oeste 33 Oeste 0 -- -- 53
2019-04-04 21:00:00 8.3 18 Oeste 33 Oeste 0 -- -- 44
2019-04-04 20:00:00 9.4 21 Oeste 40 Oeste 0 -- -- 37
2019-04-04 19:00:00 10.6 23 Oeste 33 Oeste 0 -- -- 32
2019-04-04 18:00:00 11.3 14 Oeste 33 Oeste 0 -- -- 28
2019-04-04 17:00:00 11.4 16 Sudoeste 34 Sudoeste 0 -- -- 29
2019-04-04 16:00:00 10.5 13 Sudoeste 30 Sudoeste 0 -- -- 30
2019-04-04 15:00:00 9.8 13 Sudoeste 28 Sur 0 -- -- 33
2019-04-04 14:00:00 8.7 13 Sudoeste 35 Sur 0 -- -- 37
2019-04-04 13:00:00 6.6 8 Sudoeste 20 Sudoeste 0 -- -- 46
2019-04-04 12:00:00 5.2 7 Sudoeste 22 Sur 0 -- -- 49
2019-04-04 11:00:00 3.5 6 Oeste 19 Sur 0 -- -- 56
2019-04-04 10:00:00 1.3 14 Sudoeste 22 Sur 0 -- -- 68
2019-04-04 09:00:00 -0.9 16 Sur 23 Sudoeste 0 -- -- 74
2019-04-04 08:00:00 -1.8 14 Sudoeste 21 Sudoeste 0 -- -- 76
2019-04-04 07:00:00 -1.3 10 Sudoeste 15 Sudoeste 0 -- -- 75
2019-04-04 06:00:00 -1.4 8 Sudoeste 13 Sudoeste 0 -- -- 77
2019-04-04 05:00:00 -1.3 11 Sudoeste 15 Sudoeste 0 -- -- 77
2019-04-04 04:00:00 -1 11 Sudoeste 16 Sudoeste 0 -- -- 75
2019-04-04 03:00:00 -0.8 10 Oeste 14 Oeste 0 -- -- 73
2019-04-04 02:00:00 0.5 7 Oeste 14 Oeste 0 -- -- 66
2019-04-04 01:00:00 1.3 7 Oeste 17 Noroeste 0 -- -- 62
2019-04-04 00:00:00 2.4 13 Noroeste 24 Oeste 0 -- -- 57
2019-04-03 23:00:00 3.2 15 Noroeste 21 Oeste 0 -- -- 51
2019-04-03 22:00:00 5.1 14 Noroeste 22 Noroeste 0 -- -- 48
2019-04-03 21:00:00 6.9 19 Noroeste 33 Noroeste 0 -- -- 44
2019-04-03 20:00:00 8.6 27 Noroeste 40 Noroeste 0 -- -- 41
2019-04-03 19:00:00 9.9 24 Noroeste 47 Noroeste 0 -- -- 34
2019-04-03 18:00:00 10.4 31 Noroeste 51 Oeste 0 -- -- 32
2019-04-03 17:00:00 10.9 27 Noroeste 50 Oeste 0 -- -- 30
2019-04-03 16:00:00 10.1 36 Noroeste -- -- -- -- -- 34
2019-04-03 15:00:00 -- -- -- -- -- -- -- -- --
2019-04-03 14:00:00 8.8 19 Oeste 32 Oeste 0 -- -- 49
2019-04-03 13:00:00 6.2 16 Oeste 27 Oeste 0 -- -- 67
2019-04-03 12:00:00 5.8 21 Noroeste 39 Noroeste 0 -- -- 65
2019-04-03 11:00:00 5.3 22 Oeste 29 Oeste 0 -- -- 69
2019-04-03 10:00:00 5 13 Oeste 21 Oeste 0 -- -- 74
2019-04-03 09:00:00 3.9 10 Sudoeste 16 Sudoeste 0 -- -- 77
2019-04-03 08:00:00 3.4 9 Sudoeste 16 Sudoeste 0 -- -- 76
2019-04-03 07:00:00 4.7 12 Sudoeste 17 Sudoeste 0 -- -- 69
2019-04-03 06:00:00 5.5 12 Sudoeste 16 Sudoeste 0 -- -- 64
2019-04-03 05:00:00 6.4 10 Sudoeste 17 Sudoeste 0 -- -- 60
2019-04-03 04:00:00 6.4 13 Sudoeste 22 Sudoeste 0 -- -- 59
2019-04-03 03:00:00 6.6 18 Sudoeste 24 Sudoeste 0 -- -- 58
2019-04-03 02:00:00 6.8 16 Sudoeste 20 Sudoeste 0 -- -- 56
2019-04-03 01:00:00 8 12 Sudoeste 24 Oeste 0 -- -- 53
2019-04-03 00:00:00 9.6 22 Oeste 35 Oeste 0 -- -- 46
2019-04-02 23:00:00 10.3 18 Sudoeste 27 Oeste 0 -- -- 41
2019-04-02 22:00:00 11.1 18 Oeste 26 Oeste 0 -- -- 40
2019-04-02 21:00:00 12.5 15 Sudoeste 26 Oeste 0 -- -- 36
2019-04-02 20:00:00 15.5 21 Oeste 38 Oeste 0 -- -- 32
2019-04-02 19:00:00 16.5 26 Noroeste 45 Noroeste 0 -- -- 36
2019-04-02 18:00:00 17 25 Oeste 40 Oeste 0 -- -- 35
2019-04-02 17:00:00 17 19 Oeste 35 Oeste 0 -- -- 38
2019-04-02 16:00:00 16.4 17 Oeste 31 Oeste 0 -- -- 39
2019-04-02 15:00:00 15.5 9 Oeste 27 Sudoeste 0 -- -- 46
2019-04-02 14:00:00 14.4 15 Sudoeste 25 Sudoeste 0 -- -- 53
2019-04-02 13:00:00 12 15 Sudoeste 23 Sudoeste 0 -- -- 67
2019-04-02 12:00:00 10.5 12 Sudoeste 20 Sudoeste 0 -- -- 72
2019-04-02 11:00:00 10.2 15 Oeste 22 Oeste 0 -- -- 72
2019-04-02 10:00:00 9.3 9 Sudoeste 15 Sudoeste 0 -- -- 73
2019-04-02 09:00:00 8.6 12 Sudoeste 20 Sudoeste 0 -- -- 74
2019-04-02 08:00:00 8.1 17 Sudoeste 22 Sudoeste 0 -- -- 74
2019-04-02 07:00:00 7.8 16 Sur 20 Sur 0 -- -- 73
2019-04-02 06:00:00 7.7 16 Sur 22 Sur 0 -- -- 74
2019-04-02 05:00:00 7.7 14 Sur 21 Sur 0 -- -- 75
2019-04-02 04:00:00 8 14 Sudoeste 19 Sudoeste 0 -- -- 73
2019-04-02 03:00:00 7.7 13 Sudoeste 21 Sudoeste 0 -- -- 74
2019-04-02 02:00:00 8.2 17 Sudoeste 22 Sudoeste 0 -- -- 72
2019-04-02 01:00:00 9.2 18 Sudoeste 23 Sudoeste 0 -- -- 68
2019-04-02 00:00:00 10.7 14 Sudoeste 24 Sur 0 -- -- 63
2019-04-01 23:00:00 11.2 14 Sur 19 Sur 0 -- -- 63
2019-04-01 22:00:00 11.4 12 Sur 18 Sur 0 -- -- 60
2019-04-01 21:00:00 12 13 Sur 22 Sur 0 -- -- 59
2019-04-01 20:00:00 14.8 16 Sur 22 Sur 0 -- -- 47
2019-04-01 19:00:00 15.8 3 Oeste 17 Oeste 0 -- -- 37
2019-04-01 18:00:00 16 2 Oeste 18 Noroeste 0 -- -- 38
2019-04-01 17:00:00 16.5 6 Oeste 19 Noroeste 0 -- -- 36
2019-04-01 16:00:00 16.2 12 Noroeste 21 Norte 0 -- -- 39
2019-04-01 15:00:00 15.6 5 Oeste 24 Nordeste 0 -- -- 39
2019-04-01 14:00:00 15.2 5 Este 18 Norte 0 -- -- 48
2019-04-01 13:00:00 13.3 7 Sur 14 Sur 0 -- -- 57
2019-04-01 12:00:00 11.1 7 Noroeste 13 Noroeste 0 -- -- 68
2019-04-01 11:00:00 9.6 5 Noroeste 11 Norte 0 -- -- 73
2019-04-01 10:00:00 7.9 3 Norte 6 Norte 0 -- -- 83
2019-04-01 09:00:00 4.3 0 Calma 9 Sudeste 0 -- -- 92
2019-04-01 08:00:00 4.5 7 Nordeste 9 Norte 0 -- -- 91
2019-04-01 07:00:00 6 0 Calma 3 Noroeste 0 -- -- 88
2019-04-01 06:00:00 6.3 2 Noroeste 6 Sudeste 0 -- -- 88
2019-04-01 05:00:00 6.1 3 Sudeste 10 Nordeste 0 -- -- 87
2019-04-01 04:00:00 6.3 7 Nordeste 10 Nordeste 0 -- -- 85
2019-04-01 03:00:00 7 4 Nordeste 9 Este 0 -- -- 81
2019-04-01 02:00:00 7.4 7 Este 10 Este 0 -- -- 80
2019-04-01 01:00:00 7.1 3 Este 13 Nordeste 0 -- -- 81
2019-04-01 00:00:00 6.5 11 Nordeste 19 Nordeste 0 -- -- 82
2019-03-31 23:00:00 7.9 4 Nordeste 23 Este 0 -- -- 81
2019-03-31 22:00:00 9.5 23 Este 38 Este 0 -- -- 78
2019-03-31 21:00:00 10.5 19 Nordeste 43 Este 0 -- -- 73
2019-03-31 20:00:00 11.8 27 Este 35 Este 0 -- -- 67
2019-03-31 19:00:00 12.5 15 Sudeste 24 Sudeste 0 -- -- 63
2019-03-31 18:00:00 14.1 3 Sur 21 Noroeste 0 -- -- 55
2019-03-31 17:00:00 12.9 18 Noroeste 23 Noroeste 0 -- -- 62
2019-03-31 16:00:00 12.7 21 Noroeste 44 Norte 1 -- -- 60
2019-03-31 15:00:00 17 11 Este 22 Este 0 -- -- 39
2019-03-31 14:00:00 17.1 10 Sudeste 22 Este 0 -- -- 37
2019-03-31 13:00:00 14.9 5 Oeste 14 Oeste 0 -- -- 42
2019-03-31 12:00:00 12.8 7 Oeste 17 Sudoeste 0 -- -- 48
2019-03-31 11:00:00 9.8 12 Oeste 16 Sudoeste 0 -- -- 54
2019-03-31 10:00:00 5.1 0 Calma 10 Sudeste 0 -- -- 66
2019-03-31 09:00:00 3.5 0 Calma 4 Sudeste 0 -- -- 66
2019-03-31 08:00:00 2.9 6 Sudeste 14 Sudeste 0 -- -- 66
2019-03-31 07:00:00 4.9 4 Sudeste 6 Sudeste 0 -- -- 58
2019-03-31 06:00:00 5 3 Nordeste 8 Nordeste 0 -- -- 57
2019-03-31 05:00:00 4.7 4 Sur 6 Sudeste 0 -- -- 58
2019-03-31 03:00:00 5.6 9 Sudeste 21 Este 0 -- -- 56
2019-03-31 01:00:00 6.3 10 Este 17 Sudeste 0 -- -- 52
2019-03-31 00:00:00 8 5 Este 9 Sudoeste 0 -- -- 45
2019-03-30 23:00:00 8.8 2 Norte 19 Sudeste 0 -- -- 43
2019-03-30 22:00:00 8.5 13 Sur 15 Sudeste 0 -- -- 45
2019-03-30 21:00:00 11 10 Sudeste 15 Sudeste 0 -- -- 40
2019-03-30 20:00:00 12.7 0 Calma 6 Sudeste 0 -- -- 33
2019-03-30 19:00:00 15.2 2 Este 12 Norte 0 -- -- 27
2019-03-30 18:00:00 17.3 7 Sur 14 Sur 0 -- -- 25
2019-03-30 17:00:00 16.3 3 Sudeste 17 Sudeste 0 -- -- 26
2019-03-30 16:00:00 17.9 12 Sudeste 24 Este 0 -- -- 24
2019-03-30 15:00:00 17.5 8 Noroeste 24 Noroeste 0 -- -- 25
2019-03-30 14:00:00 17.4 7 Sur 22 Sudeste 0 -- -- 25
2019-03-30 13:00:00 16.6 5 Sur 18 Este 0 -- -- 28
2019-03-30 12:00:00 15.7 6 Este 14 Este 0 -- -- 32
2019-03-30 11:00:00 13.6 6 Sudeste 14 Sudeste 0 -- -- 39
2019-03-30 10:00:00 11.6 7 Este 12 Este 0 -- -- 46
2019-03-30 09:00:00 8.6 8 Sudeste 13 Sudeste 0 -- -- 54
2019-03-30 08:00:00 4.9 7 Sudeste 14 Este 0 -- -- 67
2019-03-30 07:00:00 4.3 7 Norte 30 Sudeste 0 -- -- 68
2019-03-30 06:00:00 5.5 19 Sudeste 38 Sudeste 0 -- -- 65
2019-03-30 05:00:00 6.8 30 Sur 40 Sudeste 0 -- -- 62
2019-03-30 04:00:00 7.2 29 Sudeste 40 Sudeste 0 -- -- 61
2019-03-30 03:00:00 7.6 28 Sudeste 45 Sudeste 0 -- -- 60
2019-03-30 02:00:00 8.1 31 Sudeste 47 Sudeste 0 -- -- 58
2019-03-30 01:00:00 8.9 29 Sudeste 40 Sur 0 -- -- 50
2019-03-30 00:00:00 9.6 28 Sur 40 Sudeste 0 -- -- 45
2019-03-29 23:00:00 9.5 25 Sur 35 Sudeste 0 -- -- 44
2019-03-29 22:00:00 10.6 26 Sur 36 Sur 0 -- -- 39
2019-03-29 21:00:00 10.8 18 Sudeste 25 Sudeste 0 -- -- 34
2019-03-29 20:00:00 12 18 Sudeste 24 Sudeste 0 -- -- 34
2019-03-29 19:00:00 15 19 Sur 29 Sudoeste 0 -- -- 28
2019-03-29 18:00:00 16.1 20 Sur 28 Sur 0 -- -- 27
2019-03-29 17:00:00 17 21 Sur 32 Sudeste 0 -- -- 28
2019-03-29 16:00:00 17.8 11 Sudoeste 23 Sur 0 -- -- 27
2019-03-29 15:00:00 17.2 13 Sudoeste 21 Sudoeste 0 -- -- 27
2019-03-29 14:00:00 16.4 14 Sur 37 Sudoeste 0 -- -- 27
2019-03-29 13:00:00 15.9 14 Sudeste 29 Sur 0 -- -- 28
2019-03-29 12:00:00 15 12 Sur 31 Sur 0 -- -- 30
2019-03-29 11:00:00 14.1 24 Sur 37 Sur 0 -- -- 30
2019-03-29 10:00:00 12.7 23 Sur 30 Sudeste 0 -- -- 32
2019-03-29 09:00:00 8.9 8 Norte 27 Sudeste 0 -- -- 45
2019-03-29 08:00:00 8 21 Sudeste 41 Sur 0 -- -- 44
2019-03-29 07:00:00 8.1 31 Sudeste 44 Sudeste 0 -- -- 41
2019-03-29 06:00:00 8.2 33 Sur 46 Sudeste 0 -- -- 41
2019-03-29 05:00:00 8.8 32 Sur 48 Sur 0 -- -- 38
2019-03-29 04:00:00 9.1 34 Sur 45 Sur 0 -- -- 36
2019-03-29 03:00:00 8 23 Sudeste 31 Sudeste 0 -- -- 38
2019-03-29 02:00:00 4.6 6 Sudeste 12 Sudeste 0 -- -- 49
2019-03-29 01:00:00 5.7 8 Sudeste 11 Sudeste 0 -- -- 44
2019-03-29 00:00:00 10.3 11 Sur 18 Sudoeste 0 -- -- 31
2019-03-28 23:00:00 10.2 12 Sur 15 Sur 0 -- -- 31
2019-03-28 22:00:00 10.5 3 Sudeste 17 Sur 0 -- -- 34
2019-03-28 21:00:00 13.7 15 Sur 24 Sur 0 -- -- 28
2019-03-28 20:00:00 14.1 3 Este 8 Noroeste 0 -- -- 33
2019-03-28 19:00:00 18 2 Sur 10 Sudeste 0 -- -- 24
2019-03-28 18:00:00 18 6 Sudeste 16 Este 0 -- -- 25
2019-03-28 17:00:00 18.4 4 Este 13 Sur 0 -- -- 24
2019-03-28 16:00:00 18 7 Oeste 19 Sudoeste 0 -- -- 24
2019-03-28 15:00:00 17.4 5 Norte 18 Sudeste 0 -- -- 24
2019-03-28 14:00:00 16.8 7 Sudeste 16 Sudeste 0 -- -- 24
2019-03-28 13:00:00 15.2 4 Sudoeste 14 Sudeste 0 -- -- 29
2019-03-28 12:00:00 14.2 3 Sudeste 15 Nordeste 0 -- -- 30
2019-03-28 11:00:00 11.6 7 Nordeste 14 Nordeste 0 -- -- 36
2019-03-28 10:00:00 7.9 5 Nordeste 10 Nordeste 0 -- -- 48
2019-03-28 09:00:00 2.1 3 Norte 11 Sudeste 0 -- -- 62
2019-03-28 08:00:00 1.3 11 Sudeste 14 Sudeste 0 -- -- 65
2019-03-28 07:00:00 -1.3 14 Sudeste 22 Sudeste 0 -- -- 72
2019-03-28 06:00:00 -1.4 5 Sudeste 9 Sudeste 0 -- -- 68
2019-03-28 05:00:00 2 3 Sudoeste 5 Oeste 0 -- -- 54
2019-03-28 04:00:00 2.3 4 Sudoeste 6 Oeste 0 -- -- 54
2019-03-28 03:00:00 3.4 2 Oeste 6 Norte 0 -- -- 53
2019-03-28 02:00:00 4.4 0 Calma 15 Nordeste 0 -- -- 51
2019-03-28 01:00:00 4.8 14 Nordeste 17 Nordeste 0 -- -- 50
2019-03-28 00:00:00 5.5 12 Nordeste 26 Nordeste 0 -- -- 48
2019-03-27 23:00:00 7.5 19 Nordeste 28 Nordeste 0 -- -- 43
2019-03-27 22:00:00 8.8 15 Nordeste 26 Nordeste 0 -- -- 40
2019-03-27 21:00:00 10.2 15 Norte 28 Norte 0 -- -- 35
2019-03-27 20:00:00 12.7 17 Norte 34 Norte 0 -- -- 30
2019-03-27 19:00:00 16.3 21 Norte 33 Norte 0 -- -- 25
2019-03-27 18:00:00 18.3 18 Norte 30 Nordeste 0 -- -- 19
2019-03-27 17:00:00 18.6 20 Nordeste 38 Nordeste 0 -- -- 17
2019-03-27 16:00:00 18.5 12 Norte 27 Este 0 -- -- 19
2019-03-27 15:00:00 17.1 9 Noroeste 19 Norte 0 -- -- 22
2019-03-27 14:00:00 16 6 Nordeste 14 Nordeste 0 -- -- 22
2019-03-27 13:00:00 13.4 6 Oeste 15 Noroeste 0 -- -- 29
2019-03-27 12:00:00 11.3 5 Norte 11 Noroeste 0 -- -- 31
2019-03-27 11:00:00 8.3 3 Noroeste 10 Noroeste 0 -- -- 36
2019-03-27 10:00:00 4.5 4 Noroeste 9 Noroeste 0 -- -- 41
2019-03-27 09:00:00 1.7 8 Oeste 13 Oeste 0 -- -- 49
2019-03-27 08:00:00 -1.4 5 Sudoeste 13 Sudeste 0 -- -- 59
2019-03-27 07:00:00 -2.6 2 Sur 4 Sudoeste 0 -- -- 58
2019-03-27 06:00:00 0.1 0 Calma 6 Nordeste 0 -- -- 47
2019-03-27 05:00:00 0.3 0 Calma 5 Norte 0 -- -- 49
2019-03-27 04:00:00 0.9 5 Oeste 11 Sudoeste 0 -- -- 48
2019-03-27 03:00:00 1.6 5 Sudoeste 9 Sudoeste 0 -- -- 46
2019-03-27 02:00:00 2.6 2 Oeste 11 Nordeste 0 -- -- 42
2019-03-27 01:00:00 3.4 3 Norte 13 Norte 0 -- -- 40
2019-03-27 00:00:00 4.4 3 Oeste 24 Nordeste 0 -- -- 39
2019-03-26 23:00:00 6.6 19 Nordeste 29 Nordeste 0 -- -- 34
2019-03-26 22:00:00 8 13 Nordeste 27 Nordeste 0 -- -- 28
2019-03-26 21:00:00 11.5 21 Nordeste 31 Nordeste 0 -- -- 22
2019-03-26 20:00:00 13 19 Nordeste 36 Nordeste 0 -- -- 22
2019-03-26 19:00:00 16.4 27 Nordeste 41 Nordeste 0 -- -- 18
2019-03-26 18:00:00 18.3 27 Nordeste 40 Nordeste 0 -- -- 21
2019-03-26 17:00:00 19.5 25 Nordeste 40 Este 0 -- -- 22
2019-03-26 16:00:00 20.5 23 Nordeste 38 Nordeste 0 -- -- 20
2019-03-26 15:00:00 19.7 8 Nordeste 36 Nordeste 0 -- -- 25
2019-03-26 14:00:00 18.2 10 Nordeste 21 Nordeste 0 -- -- 25
2019-03-26 13:00:00 15.3 4 Noroeste 14 Norte 0 -- -- 33
2019-03-26 12:00:00 12.2 10 Este 18 Este 0 -- -- 40
2019-03-26 11:00:00 8.7 10 Nordeste 20 Nordeste 0 -- -- 48
2019-03-26 10:00:00 5.1 4 Nordeste 10 Norte 0 -- -- 64
2019-03-26 09:00:00 2.7 2 Nordeste 6 Norte 0 -- -- 72
2019-03-26 08:00:00 -0.8 3 Sudoeste 6 Sudoeste 0 -- -- 85
2019-03-26 07:00:00 -2.3 2 Sudeste 4 Sudeste 0 -- -- 83
2019-03-26 06:00:00 -0.6 0 Calma 4 Norte 0 -- -- 81
2019-03-26 05:00:00 0.1 2 Norte 4 Norte 0 -- -- 80
2019-03-26 04:00:00 0 0 Calma 4 Norte 0 -- -- 79
2019-03-26 03:00:00 0.4 0 Calma 11 Nordeste 0 -- -- 78
2019-03-26 02:00:00 1.2 9 Nordeste 18 Nordeste 0 -- -- 76
2019-03-26 01:00:00 2.6 12 Norte 19 Nordeste 0 -- -- 74
2019-03-26 00:00:00 3.3 13 Nordeste 20 Norte 0 -- -- 69
2019-03-25 23:00:00 4.3 10 Norte 17 Norte 0 -- -- 65
2019-03-25 22:00:00 6.2 6 Nordeste 23 Norte 0 -- -- 59
2019-03-25 21:00:00 7.7 15 Norte 32 Norte 0 -- -- 53
2019-03-25 20:00:00 9.7 18 Norte 33 Norte 0 -- -- 49
2019-03-25 19:00:00 13 24 Norte 35 Norte 0 -- -- 43
2019-03-25 18:00:00 15 27 Norte 34 Norte 0 -- -- 38
2019-03-25 17:00:00 16.2 22 Norte 33 Noroeste 0 -- -- 36
2019-03-25 16:00:00 16 21 Norte 33 Norte 0 -- -- 33
2019-03-25 15:00:00 15.7 22 Norte 39 Norte 0 -- -- 38
2019-03-25 14:00:00 15.9 19 Norte 29 Norte 0 -- -- 38
2019-03-25 13:00:00 15 15 Norte 28 Norte 0 -- -- 43
2019-03-25 12:00:00 13.8 12 Norte 29 Norte 0 -- -- 47
2019-03-25 11:00:00 11.5 13 Norte 25 Norte 0 -- -- 53
2019-03-25 10:00:00 8.7 8 Norte 15 Nordeste 0 -- -- 60
2019-03-25 09:00:00 5 4 Norte 9 Nordeste 0 -- -- 68
2019-03-25 08:00:00 4.4 7 Nordeste 11 Nordeste 0 -- -- 70
2019-03-25 07:00:00 3.6 7 Nordeste 10 Nordeste 0 -- -- 71
2019-03-25 06:00:00 4.8 7 Norte 8 Nordeste 0 -- -- 63
2019-03-25 05:00:00 4.1 3 Este 6 Norte 0 -- -- 64
2019-03-25 04:00:00 7 7 Sudeste 13 Sudeste 0 -- -- 55
2019-03-25 03:00:00 5.5 8 Sudeste 13 Sudeste 0 -- -- 59
2019-03-25 02:00:00 6.1 3 Sudeste 14 Este 0 -- -- 55
2019-03-25 01:00:00 7.9 5 Sudeste 26 Nordeste 0 -- -- 52
2019-03-25 00:00:00 9.1 15 Nordeste 27 Nordeste 0 -- -- 52
2019-03-24 23:00:00 10.1 13 Nordeste 22 Nordeste 0 -- -- 52
2019-03-24 22:00:00 11.5 12 Nordeste 15 Nordeste 0 -- -- 42
2019-03-24 21:00:00 14.9 12 Nordeste 21 Nordeste 0 -- -- 32
2019-03-24 20:00:00 14.2 5 Sudeste 13 Sudeste 0 -- -- 32
2019-03-24 19:00:00 17.7 10 Sudeste 17 Sudeste 0 -- -- 29
2019-03-24 18:00:00 19.3 11 Este 29 Este 0 -- -- 22
2019-03-24 17:00:00 20 15 Este 31 Este 0 -- -- 21
2019-03-24 16:00:00 19.9 9 Nordeste 29 Nordeste 0 -- -- 23
2019-03-24 15:00:00 19.6 13 Este 27 Sudeste 0 -- -- 23
2019-03-24 14:00:00 18.9 15 Nordeste 30 Nordeste 0 -- -- 28
2019-03-24 13:00:00 16.2 10 Nordeste 25 Este 0 -- -- 37
2019-03-24 12:00:00 15.8 8 Nordeste 21 Nordeste 0 -- -- 42
2019-03-24 11:00:00 15.6 9 Nordeste 17 Nordeste 0 -- -- 44
2019-03-24 10:00:00 13.5 10 Este 18 Este 0 -- -- 48
2019-03-24 09:00:00 11.2 15 Este 21 Este 0 -- -- 53
2019-03-24 08:00:00 5.8 4 Este 12 Nordeste 0 -- -- 70
2019-03-24 07:00:00 6.2 4 Nordeste 16 Este 0 -- -- 67
2019-03-24 06:00:00 5.5 6 Este 12 Norte 0 -- -- 69
2019-03-24 05:00:00 7.3 6 Norte 11 Norte 0 -- -- 64
2019-03-24 04:00:00 7.8 0 Calma 5 Sudeste 0 -- -- 63
2019-03-24 03:00:00 9.5 2 Este 17 Sudeste 0 -- -- 58
2019-03-24 02:00:00 10.5 14 Sudeste 27 Sudeste 0 -- -- 56
2019-03-24 01:00:00 9.4 21 Sudeste 28 Sudeste 0 -- -- 58
2019-03-24 00:00:00 8.9 17 Sudeste 23 Sudeste 0 -- -- 57
2019-03-23 23:00:00 9.3 15 Sudeste 20 Sudeste 0 -- -- 56
2019-03-23 22:00:00 9.8 18 Sudeste 20 Sudeste 0 -- -- 53
2019-03-23 21:00:00 11.4 12 Sudeste 18 Este 0 -- -- 46
2019-03-23 20:00:00 14.3 15 Este 24 Este 0 -- -- 40
2019-03-23 19:00:00 16.7 15 Sudeste 27 Sudeste 0 -- -- 34
2019-03-23 18:00:00 17.9 8 Este 22 Este 0 -- -- 33
2019-03-23 17:00:00 18.9 9 Nordeste 30 Este 0 -- -- 31
2019-03-23 16:00:00 19.5 18 Este 30 Nordeste 0 -- -- 28
2019-03-23 15:00:00 18.9 17 Nordeste 37 Sudeste 0 -- -- 31
2019-03-23 14:00:00 18.7 15 Este 29 Nordeste 0 -- -- 29
2019-03-23 13:00:00 17.9 9 Este 25 Nordeste 0 -- -- 33
2019-03-23 12:00:00 16.6 11 Nordeste 24 Nordeste 0 -- -- 36
2019-03-23 11:00:00 14.9 11 Nordeste 24 Nordeste 0 -- -- 45
2019-03-23 10:00:00 12.3 16 Este 22 Este 0 -- -- 50
2019-03-23 09:00:00 9.9 6 Este 14 Este 0 -- -- 56
2019-03-23 08:00:00 4.7 6 Este 17 Este 0 -- -- 76
2019-03-23 07:00:00 2.8 9 Sudeste 15 Sudeste 0 -- -- 79
2019-03-23 06:00:00 4.2 4 Este 21 Sudeste 0 -- -- 71
2019-03-23 05:00:00 7.9 17 Sudeste 32 Sudeste 0 -- -- 61
2019-03-23 04:00:00 8.3 19 Sudeste 31 Sur 0 -- -- 59
2019-03-23 03:00:00 8.9 24 Sur 37 Sur 0 -- -- 56
2019-03-23 02:00:00 8.9 27 Sur 36 Sur 0 -- -- 55
2019-03-23 01:00:00 7.6 21 Sur 40 Sudeste 0 -- -- 53
2019-03-23 00:00:00 6.4 21 Sudeste 26 Sudeste 0 -- -- 51
2019-03-22 23:00:00 5.9 11 Sudeste 16 Sudeste 0 -- -- 53
2019-03-22 22:00:00 9.1 8 Sudoeste 14 Sudeste 0 -- -- 41
2019-03-22 21:00:00 10.8 2 Este 7 Noroeste 0 -- -- 36
2019-03-22 20:00:00 12.7 3 Noroeste 15 Norte 0 -- -- 32
2019-03-22 19:00:00 15.2 12 Norte 21 Nordeste 0 -- -- 29
2019-03-22 18:00:00 17 6 Norte 21 Nordeste 0 -- -- 29
2019-03-22 17:00:00 17.2 9 Norte 22 Nordeste 0 -- -- 28
2019-03-22 16:00:00 17.1 5 Noroeste 26 Nordeste 0 -- -- 27
2019-03-22 15:00:00 16.7 14 Nordeste 24 Nordeste 0 -- -- 27
2019-03-22 14:00:00 15.7 8 Nordeste 20 Sur 0 -- -- 27
2019-03-22 13:00:00 14.5 7 Norte 21 Norte 0 -- -- 31
2019-03-22 12:00:00 13.1 9 Norte 14 Nordeste 0 -- -- 35
2019-03-22 11:00:00 12.5 4 Este 12 Este 0 -- -- 38
2019-03-22 10:00:00 9.2 10 Este 15 Sudeste 0 -- -- 48
2019-03-22 09:00:00 5.9 11 Sudeste 22 Sudeste 0 -- -- 55
2019-03-22 08:00:00 1.9 15 Sudeste 21 Sudeste 0 -- -- 64
2019-03-22 07:00:00 2.6 15 Sudeste 25 Sur 0 -- -- 59
2019-03-22 06:00:00 5.3 21 Sur 28 Sudeste 0 -- -- 51
2019-03-22 05:00:00 4 21 Sudeste 32 Sur 0 -- -- 55
2019-03-22 04:00:00 5.1 26 Sudeste 35 Sur 0 -- -- 51
2019-03-22 03:00:00 4.1 15 Sudeste 26 Sudeste 0 -- -- 55
2019-03-22 02:00:00 5.4 10 Sudeste 19 Sudeste 0 -- -- 50
2019-03-22 01:00:00 3.7 14 Sudeste 19 Sudeste 0 -- -- 58
2019-03-22 00:00:00 6.1 2 Sudoeste 17 Sudoeste 0 -- -- 49
2019-03-21 23:00:00 8.1 16 Sudoeste 27 Sur 0 -- -- 44
2019-03-21 22:00:00 9.5 4 Sudoeste 17 Sur 0 -- -- 39
2019-03-21 21:00:00 9.1 2 Sudeste 9 Noroeste 0 -- -- 42
2019-03-21 20:00:00 10.5 7 Noroeste 11 Oeste 0 -- -- 39
2019-03-21 19:00:00 13.3 5 Norte 13 Norte 0 -- -- 35
2019-03-21 18:00:00 14 9 Noroeste 15 Noroeste 0 -- -- 32
2019-03-21 17:00:00 14.4 6 Oeste 20 Oeste 0 -- -- 32
2019-03-21 16:00:00 14.8 6 Sur 20 Sudeste 0 -- -- 27
2019-03-21 15:00:00 14.2 4 Noroeste 16 Norte 0 -- -- 27
2019-03-21 14:00:00 12.8 5 Norte 13 Noroeste 0 -- -- 36
2019-03-21 13:00:00 12.4 3 Este 13 Nordeste 0 -- -- 41
2019-03-21 12:00:00 9.6 5 Noroeste 15 Nordeste 0 -- -- 47
2019-03-21 11:00:00 7.8 5 Norte 12 Norte 0 -- -- 52
2019-03-21 10:00:00 5.9 3 Este 13 Sudeste 0 -- -- 57
2019-03-21 09:00:00 1.8 10 Sudeste 14 Sudeste 0 -- -- 70
2019-03-21 08:00:00 -0.9 0 Calma 4 Sudeste 0 -- -- 77
2019-03-21 07:00:00 -3.4 2 Sudeste 6 Sudeste 0 -- -- 84
2019-03-21 06:00:00 -3.1 5 Nordeste 8 Sudoeste 0 -- -- 82
2019-03-21 05:00:00 -2.2 0 Calma 8 Sudeste 0 -- -- 81
2019-03-21 04:00:00 -2.7 8 Sudeste 10 Sudeste 0 -- -- 83
2019-03-21 03:00:00 0.2 3 Sudeste 9 Sudoeste 0 -- -- 69
2019-03-21 02:00:00 0.4 0 Calma 15 Nordeste 0 -- -- 68
2019-03-21 01:00:00 1.8 9 Nordeste 15 Este 0 -- -- 64
2019-03-21 00:00:00 2.3 3 Nordeste 9 Nordeste 0 -- -- 60